createdAt,value
2023-03-29T00:00:03.313Z,2.10
2023-03-29T00:02:33.762Z,1.70
2023-03-29T00:05:04.898Z,1.90
2023-03-29T00:07:35.265Z,2.00
2023-03-29T00:10:08.013Z,1.90
2023-03-29T00:12:39.588Z,1.90
2023-03-29T00:15:11.596Z,1.60
2023-03-29T00:17:41.905Z,1.90
2023-03-29T00:20:13.841Z,1.80
2023-03-29T00:22:46.678Z,1.80
2023-03-29T00:25:17.115Z,1.70
2023-03-29T00:27:47.702Z,1.60
2023-03-29T00:30:18.305Z,1.70
2023-03-29T00:32:49.085Z,1.70
2023-03-29T00:35:20.031Z,1.70
2023-03-29T00:37:53.637Z,1.60
2023-03-29T00:40:24.310Z,1.60
2023-03-29T00:42:56.125Z,1.70
2023-03-29T00:45:30.470Z,1.90
2023-03-29T00:48:06.238Z,1.40
2023-03-29T00:50:42.167Z,1.90
2023-03-29T00:53:15.858Z,1.50
2023-03-29T00:55:52.620Z,1.70
2023-03-29T00:58:28.384Z,1.60
2023-03-29T01:01:03.072Z,1.60
2023-03-29T01:03:41.522Z,1.80
2023-03-29T01:06:14.629Z,1.80
2023-03-29T01:08:51.103Z,1.60
2023-03-29T01:11:26.554Z,1.70
2023-03-29T01:14:03.650Z,1.60
2023-03-29T01:16:36.224Z,1.80
2023-03-29T01:19:08.372Z,1.50
2023-03-29T01:21:44.721Z,1.80
2023-03-29T01:24:34.312Z,1.80
2023-03-29T01:27:12.528Z,1.60
2023-03-29T01:29:47.445Z,1.70
2023-03-29T01:32:23.391Z,1.60
2023-03-29T01:34:59.558Z,1.80
2023-03-29T01:37:36.302Z,1.70
2023-03-29T01:40:07.959Z,1.50
2023-03-29T01:42:48.412Z,1.80
2023-03-29T01:45:25.412Z,1.60
2023-03-29T01:48:02.588Z,1.70
2023-03-29T01:50:44.253Z,1.60
2023-03-29T01:53:24.212Z,1.70
2023-03-29T01:55:57.290Z,1.80
2023-03-29T01:58:33.619Z,1.60
2023-03-29T02:01:10.421Z,1.60
2023-03-29T02:03:49.724Z,1.50
2023-03-29T02:06:23.749Z,1.50
2023-03-29T02:08:55.654Z,1.50
2023-03-29T02:11:29.232Z,1.80
2023-03-29T02:13:59.985Z,1.60
2023-03-29T02:16:35.402Z,1.70
2023-03-29T02:19:07.836Z,1.80
2023-03-29T02:21:48.267Z,1.90
2023-03-29T02:24:21.196Z,1.90
2023-03-29T02:26:52.573Z,1.90
2023-03-29T02:29:23.476Z,1.80
2023-03-29T02:31:59.561Z,1.60
2023-03-29T02:34:37.651Z,1.90
2023-03-29T02:37:11.721Z,1.90
2023-03-29T02:39:42.894Z,1.60
2023-03-29T02:42:14.698Z,1.40
2023-03-29T02:44:46.828Z,1.80
2023-03-29T02:47:21.877Z,2.00
2023-03-29T02:49:53.408Z,2.10
2023-03-29T02:52:27.735Z,1.90
2023-03-29T02:55:00.364Z,1.60
2023-03-29T02:57:32.426Z,1.90
2023-03-29T03:00:07.041Z,1.90
2023-03-29T03:02:37.831Z,1.80
2023-03-29T03:05:09.773Z,1.90
2023-03-29T03:07:40.559Z,1.80
2023-03-29T03:10:12.647Z,2.10
2023-03-29T03:12:42.971Z,1.90
2023-03-29T03:15:14.637Z,2.00
2023-03-29T03:17:46.444Z,1.90
2023-03-29T03:20:17.712Z,1.90
2023-03-29T03:22:49.134Z,1.70
2023-03-29T03:25:21.243Z,2.20
2023-03-29T03:27:53.186Z,1.80
2023-03-29T03:30:24.473Z,2.20
2023-03-29T03:32:55.669Z,1.90
2023-03-29T03:35:26.150Z,2.20
2023-03-29T03:37:56.472Z,2.20
2023-03-29T03:40:28.429Z,1.80
2023-03-29T03:42:58.949Z,1.70
2023-03-29T03:45:29.334Z,2.10
2023-03-29T03:48:00.009Z,1.80
2023-03-29T03:50:31.305Z,2.10
2023-03-29T03:53:01.676Z,2.10
2023-03-29T03:55:32.427Z,2.20
2023-03-29T03:58:02.820Z,2.10
2023-03-29T04:00:33.547Z,2.30
2023-03-29T04:03:06.048Z,2.60
2023-03-29T04:05:40.035Z,2.40
2023-03-29T04:08:10.796Z,2.30
2023-03-29T04:10:41.787Z,2.50
2023-03-29T04:13:12.061Z,2.40
2023-03-29T04:15:42.364Z,2.90
2023-03-29T04:18:12.965Z,2.50
2023-03-29T04:20:44.467Z,2.80
2023-03-29T04:23:15.007Z,3.00
2023-03-29T04:25:45.333Z,3.20
2023-03-29T04:28:16.258Z,2.90
2023-03-29T04:30:48.971Z,3.50
2023-03-29T04:33:19.420Z,2.60
2023-03-29T04:35:49.761Z,2.50
2023-03-29T04:38:23.146Z,3.50
2023-03-29T04:40:55.752Z,3.40
2023-03-29T04:43:26.447Z,3.30
2023-03-29T04:45:57.778Z,3.10
2023-03-29T04:48:30.193Z,3.30
2023-03-29T04:51:01.091Z,3.60
2023-03-29T04:53:31.794Z,3.30
2023-03-29T04:56:03.009Z,3.30
2023-03-29T04:58:33.613Z,3.70
2023-03-29T05:01:04.175Z,3.60
2023-03-29T05:03:35.650Z,3.40
2023-03-29T05:06:08.709Z,4.10
2023-03-29T05:08:40.065Z,3.50
2023-03-29T05:11:13.554Z,4.00
2023-03-29T05:13:44.148Z,3.20
2023-03-29T05:16:15.866Z,4.10
2023-03-29T05:18:46.691Z,4.50
2023-03-29T05:21:17.117Z,4.00
2023-03-29T05:23:47.478Z,4.40
2023-03-29T05:26:18.163Z,3.90
2023-03-29T05:28:48.797Z,4.10
2023-03-29T05:31:19.917Z,4.30
2023-03-29T05:33:51.161Z,4.20
2023-03-29T05:36:21.724Z,4.50
2023-03-29T05:38:53.279Z,4.20
2023-03-29T05:41:24.719Z,4.10
2023-03-29T05:43:55.349Z,3.80
2023-03-29T05:46:25.687Z,3.60
2023-03-29T05:48:56.041Z,4.40
2023-03-29T05:51:26.537Z,4.20
2023-03-29T05:53:56.889Z,4.00
2023-03-29T05:56:27.972Z,4.40
2023-03-29T05:58:58.633Z,4.30
2023-03-29T06:01:29.717Z,3.90
2023-03-29T06:04:00.892Z,4.10
2023-03-29T06:06:37.906Z,4.10
2023-03-29T06:09:08.353Z,3.70
2023-03-29T06:11:39.304Z,4.30
2023-03-29T06:14:10.303Z,4.30
2023-03-29T06:16:42.863Z,4.10
2023-03-29T06:19:16.064Z,4.40
2023-03-29T06:21:47.262Z,4.20
2023-03-29T06:24:17.645Z,4.40
2023-03-29T06:26:48.007Z,3.90
2023-03-29T06:29:18.826Z,4.20
2023-03-29T06:31:49.713Z,4.20
2023-03-29T06:34:21.685Z,3.90
2023-03-29T06:36:52.956Z,3.90
2023-03-29T06:39:23.428Z,4.30
2023-03-29T06:41:55.359Z,3.90
2023-03-29T06:44:28.337Z,3.80
2023-03-29T06:46:58.637Z,4.00
2023-03-29T06:49:29.255Z,3.90
2023-03-29T06:52:00.433Z,3.90
2023-03-29T06:54:31.304Z,4.10
2023-03-29T06:57:02.010Z,3.80
2023-03-29T06:59:33.433Z,3.80
2023-03-29T07:02:03.873Z,4.00
2023-03-29T07:04:35.262Z,3.80
2023-03-29T07:07:07.695Z,4.10
2023-03-29T07:09:39.892Z,4.10
2023-03-29T07:12:11.217Z,4.00
2023-03-29T07:14:42.236Z,3.70
2023-03-29T07:17:13.533Z,4.00
2023-03-29T07:19:44.218Z,4.00
2023-03-29T07:22:15.271Z,3.70
2023-03-29T07:24:45.710Z,4.00
2023-03-29T07:27:16.809Z,4.10
2023-03-29T07:29:48.403Z,3.70
2023-03-29T07:32:18.728Z,3.90
2023-03-29T07:34:49.333Z,3.80
2023-03-29T07:37:19.675Z,4.00
2023-03-29T07:39:50.835Z,4.00
2023-03-29T07:42:21.206Z,3.80
2023-03-29T07:44:52.062Z,4.20
2023-03-29T07:47:23.206Z,4.10
2023-03-29T07:49:53.542Z,4.00
2023-03-29T07:52:24.154Z,4.00
2023-03-29T07:54:55.515Z,3.30
2023-03-29T07:57:27.456Z,4.00
2023-03-29T07:59:58.119Z,3.70
2023-03-29T08:02:29.111Z,4.20
2023-03-29T08:04:59.627Z,3.70
2023-03-29T08:07:29.943Z,3.70
2023-03-29T08:10:00.588Z,3.30
2023-03-29T08:12:31.172Z,3.90
2023-03-29T08:15:01.841Z,4.30
2023-03-29T08:17:32.187Z,3.60
2023-03-29T08:20:02.645Z,3.60
2023-03-29T08:22:34.148Z,3.70
2023-03-29T08:25:05.499Z,3.60
2023-03-29T08:27:37.561Z,3.50
2023-03-29T08:30:09.621Z,3.90
2023-03-29T08:32:40.884Z,4.30
2023-03-29T08:35:12.677Z,3.30
2023-03-29T08:37:43.010Z,3.90
2023-03-29T08:40:21.397Z,4.00
2023-03-29T08:43:18.412Z,3.40
2023-03-29T08:46:02.324Z,3.30
2023-03-29T08:48:36.165Z,3.40
2023-03-29T08:51:13.597Z,3.20
2023-03-29T08:53:48.136Z,3.20
2023-03-29T08:56:24.896Z,3.10
2023-03-29T08:58:57.636Z,3.30
2023-03-29T09:01:33.630Z,3.10
2023-03-29T09:04:09.591Z,3.10
2023-03-29T09:06:41.493Z,3.20
2023-03-29T09:09:18.544Z,2.90
2023-03-29T09:12:02.763Z,3.50
2023-03-29T09:14:51.137Z,3.10
2023-03-29T09:17:34.333Z,3.30
2023-03-29T09:20:12.477Z,3.40
2023-03-29T09:22:52.028Z,3.00
2023-03-29T09:25:27.421Z,3.50
2023-03-29T09:28:05.487Z,3.10
2023-03-29T09:30:41.537Z,3.20
2023-03-29T09:33:21.016Z,3.60
2023-03-29T09:35:56.293Z,3.50
2023-03-29T09:38:27.350Z,3.00
2023-03-29T09:41:01.856Z,3.40
2023-03-29T09:43:36.592Z,3.00
2023-03-29T09:46:16.076Z,2.80
2023-03-29T09:48:48.334Z,3.50
2023-03-29T09:51:21.884Z,3.10
2023-03-29T09:53:52.773Z,3.00
2023-03-29T09:56:23.134Z,3.10
2023-03-29T09:58:53.485Z,3.10
2023-03-29T10:01:25.913Z,3.00
2023-03-29T10:03:57.959Z,3.30
2023-03-29T10:06:29.374Z,3.60
2023-03-29T10:09:00.114Z,3.20
2023-03-29T10:11:34.604Z,3.30
2023-03-29T10:14:07.394Z,3.40
2023-03-29T10:16:41.178Z,3.60
2023-03-29T10:19:25.289Z,3.20
2023-03-29T10:21:57.056Z,3.30
2023-03-29T10:24:28.720Z,3.20
2023-03-29T10:27:02.827Z,3.20
2023-03-29T10:29:39.669Z,3.30
2023-03-29T10:32:24.109Z,3.40
2023-03-29T10:34:55.688Z,3.10
2023-03-29T10:37:27.038Z,3.10
2023-03-29T10:39:57.539Z,3.60
2023-03-29T10:42:29.638Z,3.40
2023-03-29T10:45:01.704Z,3.40
2023-03-29T10:47:35.357Z,6.40
2023-03-29T10:50:10.366Z,4.60
2023-03-29T10:52:42.533Z,3.50
2023-03-29T10:55:15.385Z,2.90
2023-03-29T10:57:52.698Z,2.70
2023-03-29T11:00:29.263Z,3.60
2023-03-29T11:03:18.819Z,3.20
2023-03-29T11:05:57.392Z,3.40
2023-03-29T11:08:41.603Z,3.60
2023-03-29T11:11:30.236Z,3.20
2023-03-29T11:14:06.494Z,3.20
2023-03-29T11:16:46.916Z,3.00
2023-03-29T11:19:40.598Z,3.10
2023-03-29T11:22:17.516Z,2.50
2023-03-29T11:25:03.368Z,3.10
2023-03-29T11:27:42.184Z,3.00
2023-03-29T11:30:20.219Z,3.00
2023-03-29T11:33:00.648Z,2.90
2023-03-29T11:35:43.505Z,3.00
2023-03-29T11:38:23.472Z,3.00
2023-03-29T11:41:03.204Z,3.00
2023-03-29T11:43:39.776Z,3.20
2023-03-29T11:46:16.868Z,2.90
2023-03-29T11:48:53.947Z,2.80
2023-03-29T11:51:27.752Z,2.90
2023-03-29T11:54:08.955Z,3.30
2023-03-29T11:56:45.611Z,2.70
2023-03-29T11:59:23.615Z,2.90
2023-03-29T12:01:57.530Z,2.90
2023-03-29T12:04:33.878Z,2.80
2023-03-29T12:07:13.949Z,2.60
2023-03-29T12:09:52.154Z,2.50
2023-03-29T12:12:27.795Z,2.80
2023-03-29T12:15:04.936Z,2.80
2023-03-29T12:17:43.243Z,2.70
2023-03-29T12:20:23.361Z,2.50
2023-03-29T12:22:54.713Z,3.20
2023-03-29T12:25:29.924Z,3.30
2023-03-29T12:28:17.058Z,3.60
2023-03-29T12:31:02.252Z,3.80
2023-03-29T12:33:43.709Z,3.60
2023-03-29T12:36:32.570Z,3.50
2023-03-29T12:39:03.700Z,3.50
2023-03-29T12:41:41.654Z,3.70
2023-03-29T12:44:17.550Z,4.10
2023-03-29T12:46:48.079Z,3.70
2023-03-29T12:49:28.200Z,3.60
2023-03-29T12:52:00.956Z,3.60
2023-03-29T12:54:34.180Z,3.70
2023-03-29T12:57:20.875Z,3.60
2023-03-29T12:59:52.458Z,3.30
2023-03-29T13:02:37.647Z,3.40
2023-03-29T13:05:36.192Z,4.00
2023-03-29T13:08:27.900Z,8.20
2023-03-29T13:10:58.717Z,4.10
2023-03-29T13:13:32.128Z,4.00
2023-03-29T13:16:14.970Z,4.10
2023-03-29T13:19:01.251Z,3.90
2023-03-29T13:21:41.166Z,4.00
2023-03-29T13:24:30.039Z,3.70
2023-03-29T13:27:07.345Z,4.00
2023-03-29T13:29:54.103Z,3.30
2023-03-29T13:32:38.218Z,4.00
2023-03-29T13:35:22.421Z,3.70
2023-03-29T13:38:05.124Z,3.20
2023-03-29T13:40:46.834Z,3.00
2023-03-29T13:43:31.695Z,3.90
2023-03-29T13:46:23.099Z,3.30
2023-03-29T13:48:59.376Z,3.90
2023-03-29T13:51:42.796Z,3.80
2023-03-29T13:54:27.778Z,3.50
2023-03-29T13:57:07.602Z,3.90
2023-03-29T13:59:44.158Z,3.20
2023-03-29T14:02:22.870Z,3.60
2023-03-29T14:04:55.928Z,3.50
2023-03-29T14:07:29.676Z,3.50
2023-03-29T14:10:01.407Z,3.30
2023-03-29T14:12:39.511Z,4.10
2023-03-29T14:15:23.203Z,3.90
2023-03-29T14:18:00.252Z,3.20
2023-03-29T14:23:02.042Z,3.10
2023-03-29T14:25:32.883Z,3.40
2023-03-29T14:28:03.376Z,3.30
2023-03-29T14:30:34.343Z,3.30
2023-03-29T14:33:05.299Z,3.30
2023-03-29T14:35:37.902Z,3.40
2023-03-29T14:38:13.335Z,3.30
2023-03-29T14:40:46.311Z,3.30
2023-03-29T14:43:20.264Z,3.00
2023-03-29T14:45:51.577Z,3.50
2023-03-29T14:48:23.275Z,2.90
2023-03-29T14:50:54.241Z,2.90
2023-03-29T14:53:26.022Z,3.50
2023-03-29T14:55:57.755Z,3.30
2023-03-29T14:58:33.127Z,3.30
2023-03-29T15:01:15.045Z,2.90
2023-03-29T15:03:54.978Z,3.00
2023-03-29T15:06:27.534Z,3.20
2023-03-29T15:09:06.011Z,3.00
2023-03-29T15:11:39.696Z,3.00
2023-03-29T15:14:16.921Z,18.20
2023-03-29T15:16:49.022Z,4.90
2023-03-29T15:19:22.187Z,3.30
2023-03-29T15:21:53.246Z,3.60
2023-03-29T15:24:29.225Z,3.30
2023-03-29T15:27:05.686Z,3.20
2023-03-29T15:29:43.830Z,3.30
2023-03-29T15:32:23.894Z,3.80
2023-03-29T15:35:02.751Z,3.80
2023-03-29T15:37:33.629Z,2.90
2023-03-29T15:40:10.876Z,3.20
2023-03-29T15:42:41.421Z,3.60
2023-03-29T15:45:18.142Z,3.90
2023-03-29T15:47:48.748Z,3.40
2023-03-29T15:50:19.974Z,3.80
2023-03-29T15:52:50.382Z,4.80
2023-03-29T15:55:20.766Z,3.80
2023-03-29T15:57:54.479Z,3.90
2023-03-29T16:00:25.764Z,4.50
2023-03-29T16:02:57.904Z,4.20
2023-03-29T16:05:28.289Z,4.30
2023-03-29T16:07:58.644Z,4.40
2023-03-29T16:10:28.944Z,4.20
2023-03-29T16:12:59.879Z,4.20
2023-03-29T16:15:31.836Z,4.30
2023-03-29T16:18:02.551Z,4.50
2023-03-29T16:20:33.265Z,4.10
2023-03-29T16:23:08.771Z,4.00
2023-03-29T16:25:41.013Z,4.20
2023-03-29T16:28:14.148Z,3.60
2023-03-29T16:30:52.874Z,3.90
2023-03-29T16:33:23.742Z,3.70
2023-03-29T16:35:54.270Z,4.00
2023-03-29T16:38:26.026Z,4.90
2023-03-29T16:40:57.115Z,4.90
2023-03-29T16:43:28.191Z,6.10
2023-03-29T16:46:09.638Z,6.70
2023-03-29T16:48:40.661Z,6.90
2023-03-29T16:51:12.191Z,5.90
2023-03-29T16:53:43.066Z,4.20
2023-03-29T16:56:14.725Z,4.30
2023-03-29T16:58:45.455Z,4.70
2023-03-29T17:01:17.921Z,4.60
2023-03-29T17:03:48.564Z,4.10
2023-03-29T17:06:19.487Z,3.70
2023-03-29T17:08:50.506Z,4.30
2023-03-29T17:11:23.066Z,4.50
2023-03-29T17:13:54.113Z,4.30
2023-03-29T17:16:24.789Z,4.00
2023-03-29T17:18:55.262Z,4.90
2023-03-29T17:21:26.357Z,4.50
2023-03-29T17:23:56.854Z,4.30
2023-03-29T17:26:28.207Z,4.10
2023-03-29T17:28:58.566Z,4.30
2023-03-29T17:31:29.222Z,4.50
2023-03-29T17:34:00.193Z,4.20
2023-03-29T17:36:33.721Z,4.80
2023-03-29T17:39:05.210Z,4.20
2023-03-29T17:41:35.597Z,4.70
2023-03-29T17:44:06.000Z,4.40
2023-03-29T17:46:37.822Z,4.50
2023-03-29T17:49:08.275Z,4.40
2023-03-29T17:51:39.027Z,5.70
2023-03-29T17:54:09.451Z,5.40
2023-03-29T17:56:40.075Z,6.70
2023-03-29T17:59:10.822Z,5.40
2023-03-29T18:01:41.726Z,5.30
2023-03-29T18:04:12.363Z,5.30
2023-03-29T18:06:43.542Z,5.60
2023-03-29T18:09:14.760Z,7.50
2023-03-29T18:11:45.309Z,7.50
2023-03-29T18:14:16.065Z,6.30
2023-03-29T18:16:46.780Z,5.50
2023-03-29T18:19:17.425Z,7.20
2023-03-29T18:21:47.767Z,6.00
2023-03-29T18:24:18.101Z,5.20
2023-03-29T18:26:48.449Z,4.20
2023-03-29T18:29:18.888Z,4.80
2023-03-29T18:31:49.320Z,5.00
2023-03-29T18:34:22.171Z,4.50
2023-03-29T18:36:53.710Z,7.00
2023-03-29T18:39:24.065Z,7.20
2023-03-29T18:41:54.740Z,6.40
2023-03-29T18:44:27.610Z,6.60
2023-03-29T18:46:57.981Z,5.70
2023-03-29T18:49:28.415Z,5.60
2023-03-29T18:51:58.785Z,6.30
2023-03-29T18:54:30.006Z,5.70
2023-03-29T18:57:00.460Z,5.70
2023-03-29T18:59:31.423Z,6.30
2023-03-29T19:02:02.563Z,6.60
2023-03-29T19:04:33.268Z,5.90
2023-03-29T19:07:03.693Z,5.80
2023-03-29T19:09:34.167Z,6.20
2023-03-29T19:12:04.734Z,5.80
2023-03-29T19:14:35.194Z,5.90
2023-03-29T19:17:06.239Z,6.30
2023-03-29T19:19:37.826Z,6.00
2023-03-29T19:22:08.349Z,5.50
2023-03-29T19:24:39.322Z,5.20
2023-03-29T19:27:12.516Z,5.00
2023-03-29T19:29:43.409Z,4.80
2023-03-29T19:32:13.702Z,4.90
2023-03-29T19:34:44.006Z,5.20
2023-03-29T19:37:15.618Z,5.70
2023-03-29T19:39:46.462Z,5.40
2023-03-29T19:42:16.770Z,5.50
2023-03-29T19:44:47.079Z,7.00
2023-03-29T19:47:17.554Z,7.60
2023-03-29T19:49:47.865Z,7.20
2023-03-29T19:52:18.200Z,7.20
2023-03-29T19:54:48.833Z,7.30
2023-03-29T19:57:19.215Z,6.40
2023-03-29T19:59:50.027Z,7.30
2023-03-29T20:02:20.529Z,7.60
2023-03-29T20:04:52.127Z,6.10
2023-03-29T20:07:23.187Z,6.50
2023-03-29T20:09:53.487Z,5.60
2023-03-29T20:12:24.108Z,6.80
2023-03-29T20:14:54.781Z,6.70
2023-03-29T20:17:25.584Z,6.10
2023-03-29T20:19:56.193Z,5.60
2023-03-29T20:22:27.488Z,6.30
2023-03-29T20:24:58.040Z,6.30
2023-03-29T20:27:29.389Z,5.90
2023-03-29T20:29:59.976Z,5.50
2023-03-29T20:32:30.780Z,6.10
2023-03-29T20:35:01.580Z,5.20
2023-03-29T20:37:32.814Z,5.10
2023-03-29T20:40:05.257Z,4.70
2023-03-29T20:42:38.277Z,5.30
2023-03-29T20:45:18.685Z,5.30
2023-03-29T20:47:57.339Z,5.60
2023-03-29T20:50:28.911Z,4.90
2023-03-29T20:53:02.174Z,4.90
2023-03-29T20:55:34.051Z,5.20
2023-03-29T20:58:05.303Z,5.80
2023-03-29T21:00:37.598Z,5.50
2023-03-29T21:03:08.622Z,5.70
2023-03-29T21:05:39.574Z,5.30
2023-03-29T21:08:09.894Z,5.70
2023-03-29T21:10:42.559Z,5.90
2023-03-29T21:13:15.208Z,4.80
2023-03-29T21:15:46.543Z,5.40
2023-03-29T21:18:17.049Z,5.40
2023-03-29T21:20:47.660Z,5.00
2023-03-29T21:23:18.863Z,4.60
2023-03-29T21:25:50.100Z,4.60
2023-03-29T21:28:21.072Z,5.40
2023-03-29T21:30:51.410Z,4.40
2023-03-29T21:33:22.058Z,5.30
2023-03-29T21:35:52.859Z,5.20
2023-03-29T21:38:23.357Z,5.20
2023-03-29T21:40:53.725Z,5.30
2023-03-29T21:43:24.182Z,5.00
2023-03-29T21:45:54.464Z,5.20
2023-03-29T21:48:24.884Z,4.60
2023-03-29T21:50:56.094Z,5.70
2023-03-29T21:53:27.002Z,5.60
2023-03-29T21:55:57.507Z,4.90
2023-03-29T21:58:28.643Z,4.80
2023-03-29T22:00:59.125Z,5.80
2023-03-29T22:03:30.227Z,5.60
2023-03-29T22:06:02.806Z,5.10
2023-03-29T22:08:33.990Z,5.20
2023-03-29T22:11:08.644Z,5.40
2023-03-29T22:13:39.910Z,5.50
2023-03-29T22:16:13.825Z,5.30
2023-03-29T22:18:46.936Z,5.40
2023-03-29T22:21:19.254Z,5.60
2023-03-29T22:23:51.743Z,5.20
2023-03-29T22:26:24.746Z,5.70
2023-03-29T22:28:56.107Z,5.70
2023-03-29T22:31:28.201Z,5.60
2023-03-29T22:34:00.646Z,5.50
2023-03-29T22:36:32.342Z,5.70
2023-03-29T22:39:02.680Z,5.90
2023-03-29T22:41:33.533Z,5.60
2023-03-29T22:44:04.161Z,5.40
2023-03-29T22:46:34.957Z,5.10
2023-03-29T22:49:06.063Z,5.90
2023-03-29T22:51:36.426Z,5.00
2023-03-29T22:54:07.127Z,5.50
2023-03-29T22:56:37.455Z,5.60
2023-03-29T22:59:08.186Z,5.10
2023-03-29T23:01:38.754Z,4.90
2023-03-29T23:04:09.378Z,4.70
2023-03-29T23:06:39.763Z,5.30
2023-03-29T23:09:10.508Z,5.30
2023-03-29T23:11:40.945Z,4.90
2023-03-29T23:14:11.567Z,5.50
2023-03-29T23:16:42.296Z,5.60
2023-03-29T23:19:12.730Z,5.20
2023-03-29T23:21:43.081Z,4.90
2023-03-29T23:24:13.401Z,5.10
2023-03-29T23:26:44.078Z,4.90
2023-03-29T23:29:15.348Z,5.80
2023-03-29T23:31:47.753Z,5.30
2023-03-29T23:34:18.168Z,5.20
2023-03-29T23:36:48.492Z,5.80
2023-03-29T23:39:18.756Z,4.90
2023-03-29T23:41:49.114Z,5.50
2023-03-29T23:44:19.416Z,5.30
2023-03-29T23:46:49.720Z,5.30
2023-03-29T23:49:22.962Z,5.40
2023-03-29T23:51:53.311Z,5.10
2023-03-29T23:54:23.936Z,5.60
2023-03-29T23:56:54.277Z,6.20
2023-03-29T23:59:29.711Z,6.00
